sensor_id;sensor_type;location;lat;lon;timestamp;temperature;humidity
21551;DHT22;10936;49.836;7.078;2022-12-29T06:02:42;19.20;94.40
21551;DHT22;10936;49.836;7.078;2022-12-29T06:05:08;19.30;94.50
21551;DHT22;10936;49.836;7.078;2022-12-29T06:07:34;19.30;94.40
21551;DHT22;10936;49.836;7.078;2022-12-29T06:09:59;19.20;94.40
21551;DHT22;10936;49.836;7.078;2022-12-29T06:12:25;19.30;94.40
21551;DHT22;10936;49.836;7.078;2022-12-29T06:14:51;19.30;94.40
21551;DHT22;10936;49.836;7.078;2022-12-29T06:17:16;19.30;94.40
21551;DHT22;10936;49.836;7.078;2022-12-29T06:19:42;19.30;94.40
21551;DHT22;10936;49.836;7.078;2022-12-29T06:22:07;19.30;94.40
21551;DHT22;10936;49.836;7.078;2022-12-29T06:24:33;19.30;94.40
21551;DHT22;10936;49.836;7.078;2022-12-29T06:26:58;19.30;94.40
21551;DHT22;10936;49.836;7.078;2022-12-29T06:29:24;19.30;94.50
21551;DHT22;10936;49.836;7.078;2022-12-29T06:31:49;19.30;94.50
21551;DHT22;10936;49.836;7.078;2022-12-29T06:34:16;19.30;94.50
21551;DHT22;10936;49.836;7.078;2022-12-29T06:36:41;19.30;94.50
21551;DHT22;10936;49.836;7.078;2022-12-29T06:39:07;19.30;94.50
21551;DHT22;10936;49.836;7.078;2022-12-29T06:41:32;19.30;94.50
21551;DHT22;10936;49.836;7.078;2022-12-29T06:43:58;19.30;94.50
21551;DHT22;10936;49.836;7.078;2022-12-29T06:46:23;19.30;94.50
21551;DHT22;10936;49.836;7.078;2022-12-29T06:48:49;19.30;94.50
21551;DHT22;10936;49.836;7.078;2022-12-29T06:51:15;19.30;94.50
21551;DHT22;10936;49.836;7.078;2022-12-29T06:53:40;19.30;94.50
21551;DHT22;10936;49.836;7.078;2022-12-29T06:56:06;19.30;94.50
21551;DHT22;10936;49.836;7.078;2022-12-29T06:58:31;19.30;94.50
21551;DHT22;10936;49.836;7.078;2022-12-29T07:00:57;19.30;94.50
21551;DHT22;10936;49.836;7.078;2022-12-29T07:03:23;19.30;94.50
21551;DHT22;10936;49.836;7.078;2022-12-29T07:05:48;19.30;94.50
21551;DHT22;10936;49.836;7.078;2022-12-29T07:08:14;19.30;94.50
21551;DHT22;10936;49.836;7.078;2022-12-29T07:10:40;19.30;94.50
21551;DHT22;10936;49.836;7.078;2022-12-29T07:13:05;19.30;94.50
21551;DHT22;10936;49.836;7.078;2022-12-29T07:15:33;19.30;94.50
21551;DHT22;10936;49.836;7.078;2022-12-29T07:17:59;19.30;94.50
21551;DHT22;10936;49.836;7.078;2022-12-29T07:20:24;19.30;94.50
21551;DHT22;10936;49.836;7.078;2022-12-29T07:22:50;19.30;94.50
21551;DHT22;10936;49.836;7.078;2022-12-29T07:25:15;19.30;94.50
21551;DHT22;10936;49.836;7.078;2022-12-29T07:27:41;19.30;94.50
21551;DHT22;10936;49.836;7.078;2022-12-29T07:30:07;19.30;94.50
21551;DHT22;10936;49.836;7.078;2022-12-29T07:32:33;19.30;94.50
21551;DHT22;10936;49.836;7.078;2022-12-29T07:34:59;19.30;94.50
21551;DHT22;10936;49.836;7.078;2022-12-29T07:37:24;19.30;94.60
21551;DHT22;10936;49.836;7.078;2022-12-29T07:39:50;19.30;94.50
21551;DHT22;10936;49.836;7.078;2022-12-29T07:42:16;19.30;94.60
21551;DHT22;10936;49.836;7.078;2022-12-29T07:44:41;19.30;94.60
21551;DHT22;10936;49.836;7.078;2022-12-29T07:47:07;19.30;94.60
21551;DHT22;10936;49.836;7.078;2022-12-29T07:49:32;19.30;94.60
21551;DHT22;10936;49.836;7.078;2022-12-29T07:51:58;19.30;94.60
21551;DHT22;10936;49.836;7.078;2022-12-29T07:54:23;19.30;94.60
21551;DHT22;10936;49.836;7.078;2022-12-29T07:56:49;19.30;94.60
21551;DHT22;10936;49.836;7.078;2022-12-29T07:59:15;19.30;94.60
21551;DHT22;10936;49.836;7.078;2022-12-29T08:01:40;19.30;94.60
21551;DHT22;10936;49.836;7.078;2022-12-29T08:04:06;19.30;94.60
21551;DHT22;10936;49.836;7.078;2022-12-29T08:06:31;19.30;94.60
21551;DHT22;10936;49.836;7.078;2022-12-29T08:08:57;19.30;94.60
21551;DHT22;10936;49.836;7.078;2022-12-29T08:11:23;19.30;94.60
21551;DHT22;10936;49.836;7.078;2022-12-29T08:13:49;19.30;94.70
21551;DHT22;10936;49.836;7.078;2022-12-29T08:16:14;19.30;94.70
21551;DHT22;10936;49.836;7.078;2022-12-29T08:18:40;19.30;94.70
21551;DHT22;10936;49.836;7.078;2022-12-29T08:21:06;19.30;94.70
21551;DHT22;10936;49.836;7.078;2022-12-29T08:23:31;19.30;94.70
21551;DHT22;10936;49.836;7.078;2022-12-29T08:26:02;19.30;94.70
21551;DHT22;10936;49.836;7.078;2022-12-29T08:28:28;19.30;94.70
21551;DHT22;10936;49.836;7.078;2022-12-29T08:30:57;19.30;94.70
21551;DHT22;10936;49.836;7.078;2022-12-29T08:33:23;19.30;94.70
21551;DHT22;10936;49.836;7.078;2022-12-29T08:35:48;19.30;94.70
21551;DHT22;10936;49.836;7.078;2022-12-29T08:38:14;19.30;94.70
21551;DHT22;10936;49.836;7.078;2022-12-29T08:40:40;19.30;94.70
21551;DHT22;10936;49.836;7.078;2022-12-29T08:43:05;19.30;94.60
21551;DHT22;10936;49.836;7.078;2022-12-29T08:45:31;19.30;94.60
21551;DHT22;10936;49.836;7.078;2022-12-29T08:47:57;19.30;94.60
21551;DHT22;10936;49.836;7.078;2022-12-29T08:50:23;19.30;94.60
21551;DHT22;10936;49.836;7.078;2022-12-29T08:52:48;19.30;94.60
21551;DHT22;10936;49.836;7.078;2022-12-29T08:55:14;19.30;94.60
21551;DHT22;10936;49.836;7.078;2022-12-29T08:57:39;19.30;94.60
21551;DHT22;10936;49.836;7.078;2022-12-29T09:00:06;19.30;94.60
21551;DHT22;10936;49.836;7.078;2022-12-29T09:02:32;19.30;94.60
21551;DHT22;10936;49.836;7.078;2022-12-29T09:04:57;19.30;94.50
21551;DHT22;10936;49.836;7.078;2022-12-29T09:07:24;19.30;94.60
21551;DHT22;10936;49.836;7.078;2022-12-29T09:09:50;19.30;94.50
21551;DHT22;10936;49.836;7.078;2022-12-29T09:12:16;19.30;94.50
21551;DHT22;10936;49.836;7.078;2022-12-29T09:14:42;19.30;94.60
21551;DHT22;10936;49.836;7.078;2022-12-29T09:17:09;19.30;94.60
21551;DHT22;10936;49.836;7.078;2022-12-29T09:19:54;19.40;94.60
21551;DHT22;10936;49.836;7.078;2022-12-29T09:22:19;19.30;94.50
21551;DHT22;10936;49.836;7.078;2022-12-29T09:24:45;19.40;94.50
21551;DHT22;10936;49.836;7.078;2022-12-29T09:27:10;19.40;94.50
21551;DHT22;10936;49.836;7.078;2022-12-29T09:29:36;19.40;94.50
21551;DHT22;10936;49.836;7.078;2022-12-29T09:32:02;19.40;94.50
21551;DHT22;10936;49.836;7.078;2022-12-29T09:34:27;19.40;94.40
21551;DHT22;10936;49.836;7.078;2022-12-29T09:36:53;19.40;94.40
21551;DHT22;10936;49.836;7.078;2022-12-29T09:39:18;19.40;94.40
21551;DHT22;10936;49.836;7.078;2022-12-29T09:45:14;19.50;94.40
21551;DHT22;10936;49.836;7.078;2022-12-29T09:47:42;19.50;94.80
21551;DHT22;10936;49.836;7.078;2022-12-29T09:50:16;19.50;94.50
21551;DHT22;10936;49.836;7.078;2022-12-29T09:55:19;19.50;94.50
21551;DHT22;10936;49.836;7.078;2022-12-29T09:57:58;19.50;94.50
21551;DHT22;10936;49.836;7.078;2022-12-29T10:00:37;19.50;94.50
21551;DHT22;10936;49.836;7.078;2022-12-29T10:03:10;19.50;94.50
21551;DHT22;10936;49.836;7.078;2022-12-29T10:05:52;19.50;94.50
21551;DHT22;10936;49.836;7.078;2022-12-29T10:14:47;19.50;94.60
21551;DHT22;10936;49.836;7.078;2022-12-29T10:20:18;19.60;94.70
21551;DHT22;10936;49.836;7.078;2022-12-29T10:25:19;19.60;94.60
21551;DHT22;10936;49.836;7.078;2022-12-29T10:27:48;19.60;94.60
21551;DHT22;10936;49.836;7.078;2022-12-29T10:30:14;19.60;94.60
21551;DHT22;10936;49.836;7.078;2022-12-29T10:32:41;19.60;94.60
21551;DHT22;10936;49.836;7.078;2022-12-29T10:35:24;19.60;94.70
21551;DHT22;10936;49.836;7.078;2022-12-29T10:38:03;19.60;94.60
21551;DHT22;10936;49.836;7.078;2022-12-29T10:40:49;19.60;94.60
21551;DHT22;10936;49.836;7.078;2022-12-29T10:43:28;19.60;94.60
21551;DHT22;10936;49.836;7.078;2022-12-29T10:46:02;19.70;94.60
21551;DHT22;10936;49.836;7.078;2022-12-29T10:48:34;19.70;94.50
21551;DHT22;10936;49.836;7.078;2022-12-29T10:51:02;19.70;94.50
21551;DHT22;10936;49.836;7.078;2022-12-29T10:53:55;19.70;94.50
21551;DHT22;10936;49.836;7.078;2022-12-29T10:56:35;19.70;94.50
21551;DHT22;10936;49.836;7.078;2022-12-29T10:59:24;19.70;94.50
21551;DHT22;10936;49.836;7.078;2022-12-29T11:07:23;19.70;94.50
21551;DHT22;10936;49.836;7.078;2022-12-29T11:09:51;19.70;94.50
21551;DHT22;10936;49.836;7.078;2022-12-29T11:12:29;19.70;94.50
21551;DHT22;10936;49.836;7.078;2022-12-29T11:17:47;19.70;94.40
21551;DHT22;10936;49.836;7.078;2022-12-29T11:20:38;19.70;94.40
21551;DHT22;10936;49.836;7.078;2022-12-29T11:23:21;19.70;94.40
21551;DHT22;10936;49.836;7.078;2022-12-29T11:26:06;19.70;94.40
21551;DHT22;10936;49.836;7.078;2022-12-29T11:28:32;19.70;94.40
21551;DHT22;10936;49.836;7.078;2022-12-29T11:31:03;19.70;94.40
21551;DHT22;10936;49.836;7.078;2022-12-29T11:33:37;19.70;94.50
21551;DHT22;10936;49.836;7.078;2022-12-29T11:36:16;19.70;94.50
21551;DHT22;10936;49.836;7.078;2022-12-29T11:38:48;19.70;94.50
21551;DHT22;10936;49.836;7.078;2022-12-29T11:41:26;19.70;94.50
21551;DHT22;10936;49.836;7.078;2022-12-29T11:43:55;19.70;94.50
21551;DHT22;10936;49.836;7.078;2022-12-29T11:46:26;19.70;94.50
21551;DHT22;10936;49.836;7.078;2022-12-29T11:48:53;19.70;94.50
21551;DHT22;10936;49.836;7.078;2022-12-29T11:51:24;19.70;94.50
21551;DHT22;10936;49.836;7.078;2022-12-29T11:53:55;19.70;94.50
21551;DHT22;10936;49.836;7.078;2022-12-29T11:56:34;19.70;94.50
21551;DHT22;10936;49.836;7.078;2022-12-29T12:01:52;19.70;94.90
21551;DHT22;10936;49.836;7.078;2022-12-29T12:04:21;19.70;94.50
21551;DHT22;10936;49.836;7.078;2022-12-29T12:07:02;19.70;94.50
21551;DHT22;10936;49.836;7.078;2022-12-29T12:09:34;19.70;94.50
21551;DHT22;10936;49.836;7.078;2022-12-29T12:12:03;19.70;94.50
21551;DHT22;10936;49.836;7.078;2022-12-29T12:14:46;19.70;94.50
21551;DHT22;10936;49.836;7.078;2022-12-29T12:17:23;19.70;94.50
21551;DHT22;10936;49.836;7.078;2022-12-29T12:20:15;19.70;94.50
21551;DHT22;10936;49.836;7.078;2022-12-29T12:23:28;19.70;94.50
21551;DHT22;10936;49.836;7.078;2022-12-29T12:25:37;19.70;94.80
21551;DHT22;10936;49.836;7.078;2022-12-29T12:28:11;19.70;94.50
21551;DHT22;10936;49.836;7.078;2022-12-29T12:30:45;19.70;94.50
21551;DHT22;10936;49.836;7.078;2022-12-29T12:43:51;19.70;94.50
21551;DHT22;10936;49.836;7.078;2022-12-29T12:49:20;19.70;94.50
21551;DHT22;10936;49.836;7.078;2022-12-29T12:52:09;19.70;94.50
21551;DHT22;10936;49.836;7.078;2022-12-29T12:55:28;19.70;94.50
21551;DHT22;10936;49.836;7.078;2022-12-29T13:00:24;19.70;94.50
21551;DHT22;10936;49.836;7.078;2022-12-29T13:03:09;19.70;94.60
21551;DHT22;10936;49.836;7.078;2022-12-29T13:08:21;19.70;94.60
21551;DHT22;10936;49.836;7.078;2022-12-29T13:11:04;19.70;94.60
21551;DHT22;10936;49.836;7.078;2022-12-29T13:19:04;19.80;94.70
21551;DHT22;10936;49.836;7.078;2022-12-29T13:27:00;19.80;94.80
21551;DHT22;10936;49.836;7.078;2022-12-29T13:32:20;19.80;94.80
21551;DHT22;10936;49.836;7.078;2022-12-29T13:37:17;19.80;94.80
21551;DHT22;10936;49.836;7.078;2022-12-29T13:40:01;19.80;94.80
21551;DHT22;10936;49.836;7.078;2022-12-29T13:42:28;19.80;94.80
21551;DHT22;10936;49.836;7.078;2022-12-29T13:45:00;19.80;94.80
21551;DHT22;10936;49.836;7.078;2022-12-29T13:47:36;19.80;94.80
21551;DHT22;10936;49.836;7.078;2022-12-29T13:50:04;19.80;95.10
21551;DHT22;10936;49.836;7.078;2022-12-29T13:52:45;19.80;94.80
21551;DHT22;10936;49.836;7.078;2022-12-29T13:55:37;19.80;94.80
21551;DHT22;10936;49.836;7.078;2022-12-29T13:58:24;19.80;94.80
21551;DHT22;10936;49.836;7.078;2022-12-29T14:00:57;19.80;94.80
21551;DHT22;10936;49.836;7.078;2022-12-29T14:04:09;19.80;94.80
21551;DHT22;10936;49.836;7.078;2022-12-29T14:06:20;19.80;94.80
21551;DHT22;10936;49.836;7.078;2022-12-29T14:08:48;19.80;94.80
21551;DHT22;10936;49.836;7.078;2022-12-29T14:11:17;19.80;94.80
21551;DHT22;10936;49.836;7.078;2022-12-29T14:13:45;19.80;94.80
21551;DHT22;10936;49.836;7.078;2022-12-29T14:18:50;19.80;94.80
21551;DHT22;10936;49.836;7.078;2022-12-29T14:23:45;19.90;94.80
21551;DHT22;10936;49.836;7.078;2022-12-29T14:26:14;19.80;94.80
21551;DHT22;10936;49.836;7.078;2022-12-29T14:28:47;19.80;94.80
21551;DHT22;10936;49.836;7.078;2022-12-29T14:36:40;19.80;94.90
21551;DHT22;10936;49.836;7.078;2022-12-29T14:47:16;19.80;94.90
21551;DHT22;10936;49.836;7.078;2022-12-29T14:49:44;19.80;95.10
21551;DHT22;10936;49.836;7.078;2022-12-29T14:52:17;19.80;94.90
21551;DHT22;10936;49.836;7.078;2022-12-29T14:54:48;19.80;94.90
21551;DHT22;10936;49.836;7.078;2022-12-29T14:59:47;19.80;94.90
21551;DHT22;10936;49.836;7.078;2022-12-29T15:02:17;19.80;94.90
21551;DHT22;10936;49.836;7.078;2022-12-29T15:04:44;19.80;94.90
21551;DHT22;10936;49.836;7.078;2022-12-29T15:07:11;19.80;94.90
21551;DHT22;10936;49.836;7.078;2022-12-29T15:09:53;19.80;95.00
21551;DHT22;10936;49.836;7.078;2022-12-29T15:12:35;19.80;94.90
21551;DHT22;10936;49.836;7.078;2022-12-29T15:15:18;19.80;94.90
21551;DHT22;10936;49.836;7.078;2022-12-29T15:17:43;19.80;94.90
21551;DHT22;10936;49.836;7.078;2022-12-29T15:20:27;19.80;95.30
21551;DHT22;10936;49.836;7.078;2022-12-29T15:23:22;19.80;94.90
21551;DHT22;10936;49.836;7.078;2022-12-29T15:25:55;19.80;94.90
21551;DHT22;10936;49.836;7.078;2022-12-29T15:28:22;19.80;94.90
21551;DHT22;10936;49.836;7.078;2022-12-29T15:30:56;19.80;95.00
21551;DHT22;10936;49.836;7.078;2022-12-29T15:33:25;19.80;95.00
21551;DHT22;10936;49.836;7.078;2022-12-29T15:35:53;19.80;95.00
21551;DHT22;10936;49.836;7.078;2022-12-29T15:38:32;19.80;95.00
21551;DHT22;10936;49.836;7.078;2022-12-29T15:41:48;19.90;95.00
21551;DHT22;10936;49.836;7.078;2022-12-29T15:46:31;19.90;95.00
21551;DHT22;10936;49.836;7.078;2022-12-29T15:48:57;19.90;95.00
21551;DHT22;10936;49.836;7.078;2022-12-29T15:51:28;19.80;94.90
21551;DHT22;10936;49.836;7.078;2022-12-29T15:53:54;19.80;95.00
21551;DHT22;10936;49.836;7.078;2022-12-29T15:56:20;19.80;95.00
21551;DHT22;10936;49.836;7.078;2022-12-29T15:58:49;19.80;95.00
21551;DHT22;10936;49.836;7.078;2022-12-29T16:01:32;19.80;95.00
21551;DHT22;10936;49.836;7.078;2022-12-29T16:04:00;19.80;95.00
21551;DHT22;10936;49.836;7.078;2022-12-29T16:06:37;19.80;95.00
21551;DHT22;10936;49.836;7.078;2022-12-29T16:09:13;19.80;94.90
21551;DHT22;10936;49.836;7.078;2022-12-29T16:11:52;19.80;95.00
21551;DHT22;10936;49.836;7.078;2022-12-29T16:14:40;19.80;95.00
21551;DHT22;10936;49.836;7.078;2022-12-29T16:17:12;19.80;95.00
21551;DHT22;10936;49.836;7.078;2022-12-29T16:19:43;19.80;95.00
21551;DHT22;10936;49.836;7.078;2022-12-29T16:22:28;19.80;95.40
21551;DHT22;10936;49.836;7.078;2022-12-29T16:24:58;19.80;95.00
21551;DHT22;10936;49.836;7.078;2022-12-29T16:30:04;19.80;95.00
21551;DHT22;10936;49.836;7.078;2022-12-29T16:32:31;19.80;95.00
21551;DHT22;10936;49.836;7.078;2022-12-29T16:35:13;19.80;95.00
21551;DHT22;10936;49.836;7.078;2022-12-29T16:37:41;19.80;95.00
21551;DHT22;10936;49.836;7.078;2022-12-29T16:42:48;19.70;94.90
21551;DHT22;10936;49.836;7.078;2022-12-29T16:50:37;19.70;94.90
21551;DHT22;10936;49.836;7.078;2022-12-29T16:53:04;19.70;94.90
21551;DHT22;10936;49.836;7.078;2022-12-29T16:55:30;19.70;94.90
21551;DHT22;10936;49.836;7.078;2022-12-29T16:57:57;19.70;94.90
21551;DHT22;10936;49.836;7.078;2022-12-29T17:00:26;19.70;94.90
21551;DHT22;10936;49.836;7.078;2022-12-29T17:02:57;19.70;94.90
21551;DHT22;10936;49.836;7.078;2022-12-29T17:05:23;19.70;94.90
21551;DHT22;10936;49.836;7.078;2022-12-29T17:07:49;19.70;94.90
21551;DHT22;10936;49.836;7.078;2022-12-29T17:10:16;19.70;94.90
21551;DHT22;10936;49.836;7.078;2022-12-29T17:12:43;19.70;94.90
21551;DHT22;10936;49.836;7.078;2022-12-29T17:15:25;19.70;94.90
21551;DHT22;10936;49.836;7.078;2022-12-29T17:17:53;19.70;94.90
21551;DHT22;10936;49.836;7.078;2022-12-29T17:20:28;19.70;94.90
21551;DHT22;10936;49.836;7.078;2022-12-29T17:22:55;19.70;94.90
21551;DHT22;10936;49.836;7.078;2022-12-29T17:25:35;19.70;94.90
21551;DHT22;10936;49.836;7.078;2022-12-29T17:28:20;19.70;94.90
21551;DHT22;10936;49.836;7.078;2022-12-29T17:30:45;19.70;94.90
21551;DHT22;10936;49.836;7.078;2022-12-29T17:33:14;19.70;94.90
21551;DHT22;10936;49.836;7.078;2022-12-29T17:35:40;19.60;94.80
21551;DHT22;10936;49.836;7.078;2022-12-29T17:38:20;19.70;94.90
21551;DHT22;10936;49.836;7.078;2022-12-29T17:40:46;19.60;94.80
21551;DHT22;10936;49.836;7.078;2022-12-29T17:43:13;19.70;94.80
21551;DHT22;10936;49.836;7.078;2022-12-29T17:45:40;19.60;94.80
21551;DHT22;10936;49.836;7.078;2022-12-29T17:48:16;19.60;94.80
21551;DHT22;10936;49.836;7.078;2022-12-29T17:50:43;19.60;94.80
21551;DHT22;10936;49.836;7.078;2022-12-29T17:53:15;19.60;94.80
21551;DHT22;10936;49.836;7.078;2022-12-29T17:55:41;19.60;94.80
21551;DHT22;10936;49.836;7.078;2022-12-29T17:58:21;19.60;94.80
21551;DHT22;10936;49.836;7.078;2022-12-29T18:00:51;19.60;94.80
21551;DHT22;10936;49.836;7.078;2022-12-29T18:03:39;19.60;94.80
21551;DHT22;10936;49.836;7.078;2022-12-29T18:06:06;19.60;94.80
21551;DHT22;10936;49.836;7.078;2022-12-29T18:08:36;19.60;94.80
21551;DHT22;10936;49.836;7.078;2022-12-29T18:11:03;19.60;94.80
21551;DHT22;10936;49.836;7.078;2022-12-29T18:13:30;19.60;94.80
21551;DHT22;10936;49.836;7.078;2022-12-29T18:15:57;19.60;94.80
21551;DHT22;10936;49.836;7.078;2022-12-29T18:18:25;19.60;94.80
21551;DHT22;10936;49.836;7.078;2022-12-29T18:20:53;19.60;94.80
21551;DHT22;10936;49.836;7.078;2022-12-29T18:23:26;19.60;94.80
21551;DHT22;10936;49.836;7.078;2022-12-29T18:26:03;19.60;94.80
21551;DHT22;10936;49.836;7.078;2022-12-29T18:28:31;19.60;94.80
21551;DHT22;10936;49.836;7.078;2022-12-29T18:30:58;19.60;94.80
21551;DHT22;10936;49.836;7.078;2022-12-29T18:33:24;19.60;94.80
21551;DHT22;10936;49.836;7.078;2022-12-29T18:35:58;19.60;94.80
21551;DHT22;10936;49.836;7.078;2022-12-29T18:38:25;19.60;94.80
21551;DHT22;10936;49.836;7.078;2022-12-29T18:40:51;19.60;94.80
21551;DHT22;10936;49.836;7.078;2022-12-29T18:43:18;19.60;94.80
21551;DHT22;10936;49.836;7.078;2022-12-29T18:45:44;19.60;94.80
21551;DHT22;10936;49.836;7.078;2022-12-29T18:48:17;19.60;94.70
21551;DHT22;10936;49.836;7.078;2022-12-29T18:50:43;19.60;94.80
21551;DHT22;10936;49.836;7.078;2022-12-29T18:53:20;19.60;94.80
21551;DHT22;10936;49.836;7.078;2022-12-29T18:55:46;19.60;94.70
21551;DHT22;10936;49.836;7.078;2022-12-29T18:58:12;19.60;94.70
21551;DHT22;10936;49.836;7.078;2022-12-29T19:00:38;19.60;94.70
21551;DHT22;10936;49.836;7.078;2022-12-29T19:03:04;19.60;94.70
21551;DHT22;10936;49.836;7.078;2022-12-29T19:05:37;19.60;94.70
21551;DHT22;10936;49.836;7.078;2022-12-29T19:08:04;19.60;94.70
21551;DHT22;10936;49.836;7.078;2022-12-29T19:10:30;19.60;94.70
21551;DHT22;10936;49.836;7.078;2022-12-29T19:12:56;19.50;94.70
21551;DHT22;10936;49.836;7.078;2022-12-29T19:15:28;19.60;94.70
21551;DHT22;10936;49.836;7.078;2022-12-29T19:17:56;19.50;94.70
21551;DHT22;10936;49.836;7.078;2022-12-29T19:20:39;19.60;94.70
21551;DHT22;10936;49.836;7.078;2022-12-29T19:23:07;19.60;94.70
21551;DHT22;10936;49.836;7.078;2022-12-29T19:25:33;19.60;94.70
21551;DHT22;10936;49.836;7.078;2022-12-29T19:28:00;19.60;94.70
21551;DHT22;10936;49.836;7.078;2022-12-29T19:30:27;19.60;94.70
21551;DHT22;10936;49.836;7.078;2022-12-29T19:32:54;19.50;94.70
21551;DHT22;10936;49.836;7.078;2022-12-29T19:35:23;19.50;94.70
21551;DHT22;10936;49.836;7.078;2022-12-29T19:37:49;19.50;94.70
21551;DHT22;10936;49.836;7.078;2022-12-29T19:40:18;19.50;94.70
21551;DHT22;10936;49.836;7.078;2022-12-29T19:42:44;19.50;94.70
21551;DHT22;10936;49.836;7.078;2022-12-29T19:45:09;19.50;94.70
21551;DHT22;10936;49.836;7.078;2022-12-29T19:47:35;19.50;94.70
21551;DHT22;10936;49.836;7.078;2022-12-29T19:50:02;19.50;94.70
21551;DHT22;10936;49.836;7.078;2022-12-29T19:52:29;19.60;94.70
21551;DHT22;10936;49.836;7.078;2022-12-29T19:54:56;19.50;94.70
21551;DHT22;10936;49.836;7.078;2022-12-29T19:57:22;19.50;94.60
21551;DHT22;10936;49.836;7.078;2022-12-29T19:59:49;19.50;94.70
21551;DHT22;10936;49.836;7.078;2022-12-29T20:02:26;19.50;94.60
21551;DHT22;10936;49.836;7.078;2022-12-29T20:04:52;19.50;94.60
21551;DHT22;10936;49.836;7.078;2022-12-29T20:07:18;19.50;94.60
21551;DHT22;10936;49.836;7.078;2022-12-29T20:09:45;19.50;94.70
21551;DHT22;10936;49.836;7.078;2022-12-29T20:12:11;19.50;94.60
21551;DHT22;10936;49.836;7.078;2022-12-29T20:14:37;19.50;94.60
21551;DHT22;10936;49.836;7.078;2022-12-29T20:17:04;19.50;94.60
21551;DHT22;10936;49.836;7.078;2022-12-29T20:19:32;19.50;94.60
21551;DHT22;10936;49.836;7.078;2022-12-29T20:21:57;19.50;94.60
21551;DHT22;10936;49.836;7.078;2022-12-29T20:24:23;19.50;94.60
21551;DHT22;10936;49.836;7.078;2022-12-29T20:26:49;19.50;94.60
21551;DHT22;10936;49.836;7.078;2022-12-29T20:29:14;19.50;94.60
21551;DHT22;10936;49.836;7.078;2022-12-29T20:31:43;19.50;94.60
21551;DHT22;10936;49.836;7.078;2022-12-29T20:34:08;19.50;94.60
21551;DHT22;10936;49.836;7.078;2022-12-29T20:36:37;19.50;94.60
21551;DHT22;10936;49.836;7.078;2022-12-29T20:39:07;19.50;94.60
21551;DHT22;10936;49.836;7.078;2022-12-29T20:41:33;19.50;94.60
21551;DHT22;10936;49.836;7.078;2022-12-29T20:43:59;19.50;94.60
21551;DHT22;10936;49.836;7.078;2022-12-29T20:46:26;19.50;94.60
21551;DHT22;10936;49.836;7.078;2022-12-29T20:48:52;19.50;94.60
21551;DHT22;10936;49.836;7.078;2022-12-29T20:51:18;19.50;94.60
21551;DHT22;10936;49.836;7.078;2022-12-29T20:53:45;19.50;94.60
21551;DHT22;10936;49.836;7.078;2022-12-29T20:56:16;19.50;94.60
21551;DHT22;10936;49.836;7.078;2022-12-29T20:58:43;19.50;94.60
21551;DHT22;10936;49.836;7.078;2022-12-29T21:01:12;19.50;94.60
21551;DHT22;10936;49.836;7.078;2022-12-29T21:03:38;19.50;94.60
21551;DHT22;10936;49.836;7.078;2022-12-29T21:06:05;19.50;94.60
21551;DHT22;10936;49.836;7.078;2022-12-29T21:08:31;19.50;94.60
21551;DHT22;10936;49.836;7.078;2022-12-29T21:10:56;19.50;94.60
21551;DHT22;10936;49.836;7.078;2022-12-29T21:13:25;19.50;94.50
21551;DHT22;10936;49.836;7.078;2022-12-29T21:16:02;19.50;94.50
21551;DHT22;10936;49.836;7.078;2022-12-29T21:18:28;19.50;94.60
21551;DHT22;10936;49.836;7.078;2022-12-29T21:20:59;19.50;94.50
21551;DHT22;10936;49.836;7.078;2022-12-29T21:23:25;19.50;94.50
21551;DHT22;10936;49.836;7.078;2022-12-29T21:25:51;19.50;94.50
21551;DHT22;10936;49.836;7.078;2022-12-29T21:28:18;19.50;94.50
21551;DHT22;10936;49.836;7.078;2022-12-29T21:30:44;19.40;94.50
21551;DHT22;10936;49.836;7.078;2022-12-29T21:33:10;19.50;94.50
21551;DHT22;10936;49.836;7.078;2022-12-29T21:35:36;19.50;94.50
21551;DHT22;10936;49.836;7.078;2022-12-29T21:38:03;19.40;94.50
21551;DHT22;10936;49.836;7.078;2022-12-29T21:40:29;19.40;94.50
21551;DHT22;10936;49.836;7.078;2022-12-29T21:42:55;19.50;94.50
21551;DHT22;10936;49.836;7.078;2022-12-29T21:45:21;19.40;94.60
21551;DHT22;10936;49.836;7.078;2022-12-29T21:47:53;19.40;94.50
21551;DHT22;10936;49.836;7.078;2022-12-29T21:50:42;19.40;94.50
21551;DHT22;10936;49.836;7.078;2022-12-29T21:53:44;19.40;94.50
21551;DHT22;10936;49.836;7.078;2022-12-29T21:56:15;19.40;94.50
21551;DHT22;10936;49.836;7.078;2022-12-29T21:58:46;19.40;94.50
21551;DHT22;10936;49.836;7.078;2022-12-29T22:01:33;19.40;94.50
21551;DHT22;10936;49.836;7.078;2022-12-29T22:04:20;19.40;94.50
21551;DHT22;10936;49.836;7.078;2022-12-29T22:07:06;19.40;94.50
21551;DHT22;10936;49.836;7.078;2022-12-29T22:09:51;19.40;94.90
21551;DHT22;10936;49.836;7.078;2022-12-29T22:12:35;19.40;94.50
21551;DHT22;10936;49.836;7.078;2022-12-29T22:15:19;19.40;94.60
21551;DHT22;10936;49.836;7.078;2022-12-29T22:17:50;19.40;94.60
21551;DHT22;10936;49.836;7.078;2022-12-29T22:20:18;19.40;94.60
21551;DHT22;10936;49.836;7.078;2022-12-29T22:22:44;19.40;95.00
21551;DHT22;10936;49.836;7.078;2022-12-29T22:25:09;19.40;94.70
21551;DHT22;10936;49.836;7.078;2022-12-29T22:27:35;19.40;94.70
21551;DHT22;10936;49.836;7.078;2022-12-29T22:30:01;19.40;94.70
